Terminal Aerodrome Forecast
Issued by NWS Blacksburg, VA

Home | Current Version | Previous Version | Text Only | Print | Product List | Glossary On
Versions: 1 2 3 4 5 6 7 8 9 10 11 12 13 14 15 16
000
FTUS41 KRNK 242329
TAFROA
TAF
KROA 242329Z 2500/2524 07010KT 5SM -RA BKN007 OVC012
     FM250300 05007KT 5SM -RA OVC005
      TEMPO 2506/2509 2SM -RA
     FM251400 32005KT P6SM VCSH OVC012
     FM251800 31010KT P6SM VCSH BKN035
     FM252200 31010G20KT P6SM BKN035=

USA.gov is the U.S. government's official web portal to all federal, state and local government web resources and services.